createdAt,value
2023-04-10T00:01:56.427Z,34.27
2023-04-10T00:04:25.300Z,32.67
2023-04-10T00:06:53.900Z,33.20
2023-04-10T00:09:23.990Z,33.67
2023-04-10T00:11:52.852Z,30.63
2023-04-10T00:14:23.459Z,29.90
2023-04-10T00:16:52.041Z,30.77
2023-04-10T00:19:20.709Z,31.30
2023-04-10T00:21:49.481Z,31.23
2023-04-10T00:24:18.100Z,32.03
2023-04-10T00:26:48.185Z,33.73
2023-04-10T00:29:16.873Z,31.70
2023-04-10T00:31:45.676Z,33.27
2023-04-10T00:34:14.368Z,33.17
2023-04-10T00:36:43.047Z,32.80
2023-04-10T00:39:12.997Z,30.63
2023-04-10T00:41:41.545Z,31.93
2023-04-10T00:44:11.550Z,29.90
2023-04-10T00:46:41.295Z,32.43
2023-04-10T00:49:10.696Z,31.87
2023-04-10T00:51:39.698Z,32.67
2023-04-10T00:54:10.577Z,33.07
2023-04-10T00:56:39.303Z,31.30
2023-04-10T00:59:07.929Z,31.77
2023-04-10T01:01:38.123Z,32.07
2023-04-10T01:04:07.395Z,33.03
2023-04-10T01:06:49.336Z,30.87
2023-04-10T01:09:28.923Z,30.93
2023-04-10T01:12:06.022Z,31.30
2023-04-10T01:14:44.155Z,30.70
2023-04-10T01:17:21.680Z,30.10
2023-04-10T01:20:02.135Z,31.13
2023-04-10T01:22:37.131Z,31.93
2023-04-10T01:25:31.417Z,32.23
2023-04-10T01:28:23.187Z,31.17
2023-04-10T01:30:59.171Z,28.97
2023-04-10T01:33:33.985Z,30.17
2023-04-10T01:36:06.560Z,30.37
2023-04-10T01:38:37.379Z,31.03
2023-04-10T01:41:08.121Z,29.97
2023-04-10T01:43:38.174Z,28.87
2023-04-10T01:46:08.845Z,30.57
2023-04-10T01:48:37.570Z,39.77
2023-04-10T01:51:08.558Z,37.80
2023-04-10T01:53:38.200Z,34.63
2023-04-10T01:56:08.679Z,32.13
2023-04-10T01:58:37.863Z,33.17
2023-04-10T02:01:10.311Z,40.13
2023-04-10T02:03:45.249Z,43.90
2023-04-10T02:06:20.002Z,39.87
2023-04-10T02:08:56.481Z,39.07
2023-04-10T02:11:35.533Z,52.60
2023-04-10T02:14:06.952Z,61.80
2023-04-10T02:16:39.609Z,54.97
2023-04-10T02:19:09.931Z,59.50
2023-04-10T02:21:40.141Z,56.50
2023-04-10T02:24:09.053Z,53.07
2023-04-10T02:26:47.039Z,58.50
2023-04-10T02:29:15.784Z,60.70
2023-04-10T02:31:46.346Z,61.27
2023-04-10T02:34:15.046Z,61.90
2023-04-10T02:36:43.669Z,60.43
2023-04-10T02:39:12.151Z,62.40
2023-04-10T02:41:40.698Z,59.17
2023-04-10T02:44:09.251Z,56.93
2023-04-10T02:46:37.957Z,51.20
2023-04-10T02:49:07.974Z,56.13
2023-04-10T02:51:37.674Z,55.10
2023-04-10T02:54:06.274Z,45.50
2023-04-10T02:56:36.007Z,45.40
2023-04-10T02:59:04.932Z,41.57
2023-04-10T03:01:33.764Z,42.70
2023-04-10T03:04:04.096Z,40.83
2023-04-10T03:06:34.245Z,41.27
2023-04-10T03:09:02.876Z,38.30
2023-04-10T03:11:31.885Z,37.00
2023-04-10T03:14:00.596Z,41.33
2023-04-10T03:16:29.411Z,35.47
2023-04-10T03:18:58.359Z,34.53
2023-04-10T03:21:27.604Z,34.43
2023-04-10T03:23:57.679Z,36.30
2023-04-10T03:26:26.292Z,33.40
2023-04-10T03:28:54.832Z,33.80
2023-04-10T03:31:23.398Z,31.67
2023-04-10T03:33:52.197Z,32.80
2023-04-10T03:36:21.102Z,31.70
2023-04-10T03:38:49.697Z,28.87
2023-04-10T03:41:19.705Z,32.17
2023-04-10T03:43:48.324Z,32.47
2023-04-10T03:46:17.360Z,29.37
2023-04-10T03:48:45.886Z,29.80
2023-04-10T03:51:14.487Z,31.80
2023-04-10T03:53:42.973Z,31.00
2023-04-10T03:56:11.862Z,35.47
2023-04-10T03:58:41.864Z,37.47
2023-04-10T04:01:10.629Z,32.40
2023-04-10T04:03:39.330Z,32.03
2023-04-10T04:06:08.646Z,31.90
2023-04-10T04:08:38.856Z,33.40
2023-04-10T04:11:07.912Z,39.13
2023-04-10T04:13:36.606Z,40.53
2023-04-10T04:16:07.485Z,37.27
2023-04-10T04:18:36.267Z,36.73
2023-04-10T04:21:04.861Z,35.60
2023-04-10T04:23:33.400Z,36.63
2023-04-10T04:26:01.940Z,34.87
2023-04-10T04:28:30.655Z,33.87
2023-04-10T04:30:59.427Z,35.20
2023-04-10T04:33:29.469Z,35.20
2023-04-10T04:35:58.674Z,36.47
2023-04-10T04:38:27.814Z,35.43
2023-04-10T04:40:56.628Z,71.43
2023-04-10T04:43:25.334Z,38.07
2023-04-10T04:45:54.039Z,36.43
2023-04-10T04:48:22.644Z,33.07
2023-04-10T04:50:52.655Z,32.40
2023-04-10T04:53:21.232Z,31.73
2023-04-10T04:55:49.845Z,31.67
2023-04-10T04:58:18.470Z,29.67
2023-04-10T05:00:47.087Z,30.60
2023-04-10T05:03:16.234Z,31.67
2023-04-10T05:05:44.946Z,28.57
2023-04-10T05:08:15.057Z,32.53
2023-04-10T05:10:43.600Z,29.70
2023-04-10T05:13:12.286Z,29.30
2023-04-10T05:15:41.156Z,28.03
2023-04-10T05:18:09.818Z,29.67
2023-04-10T05:20:38.959Z,28.93
2023-04-10T05:23:07.685Z,25.70
2023-04-10T05:25:37.769Z,25.73
2023-04-10T05:28:06.361Z,24.97
2023-04-10T05:30:35.064Z,25.03
2023-04-10T05:33:03.614Z,22.43
2023-04-10T05:35:32.257Z,23.83
2023-04-10T05:38:00.952Z,22.27
2023-04-10T05:40:30.803Z,22.17
2023-04-10T05:43:00.920Z,20.00
2023-04-10T05:45:30.372Z,21.13
2023-04-10T05:47:59.180Z,20.90
2023-04-10T05:50:29.329Z,21.13
2023-04-10T05:52:59.175Z,21.90
2023-04-10T05:55:27.684Z,21.43
2023-04-10T05:57:56.555Z,22.43
2023-04-10T06:00:26.827Z,23.40
2023-04-10T06:02:56.960Z,25.20
2023-04-10T06:05:25.712Z,27.10
2023-04-10T06:07:55.243Z,25.50
2023-04-10T06:10:25.593Z,25.57
2023-04-10T06:12:54.097Z,27.13
2023-04-10T06:15:22.698Z,29.30
2023-04-10T06:17:54.217Z,25.83
2023-04-10T06:20:23.120Z,26.03
2023-04-10T06:22:51.968Z,24.90
2023-04-10T06:25:20.776Z,25.47
2023-04-10T06:27:49.376Z,25.37
2023-04-10T06:30:18.010Z,24.90
2023-04-10T06:32:46.647Z,26.60
2023-04-10T06:35:16.660Z,29.93
2023-04-10T06:37:45.174Z,26.73
2023-04-10T06:40:15.770Z,22.33
2023-04-10T06:42:44.795Z,23.97
2023-04-10T06:45:13.507Z,21.53
2023-04-10T06:47:42.307Z,21.33
2023-04-10T06:50:11.628Z,19.73
2023-04-10T06:52:41.581Z,19.03
2023-04-10T06:55:10.579Z,18.13
2023-04-10T06:57:39.131Z,16.13
2023-04-10T07:00:09.601Z,16.77
2023-04-10T07:02:38.135Z,15.63
2023-04-10T07:05:07.449Z,14.77
2023-04-10T07:07:36.224Z,15.00
2023-04-10T07:10:07.269Z,16.00
2023-04-10T07:12:35.971Z,16.20
2023-04-10T07:15:04.660Z,15.40
2023-04-10T07:17:33.299Z,14.17
2023-04-10T07:20:02.060Z,18.77
2023-04-10T07:22:31.105Z,17.30
2023-04-10T07:25:00.072Z,18.97
2023-04-10T07:27:30.243Z,15.87
2023-04-10T07:29:58.793Z,15.53
2023-04-10T07:32:27.608Z,17.70
2023-04-10T07:34:56.279Z,14.40
2023-04-10T07:37:24.846Z,15.20
2023-04-10T07:39:53.593Z,18.50
2023-04-10T07:42:23.262Z,17.97
2023-04-10T07:44:53.439Z,16.80
2023-04-10T07:47:22.048Z,14.17
2023-04-10T07:49:51.048Z,13.20
2023-04-10T07:52:19.861Z,10.93
2023-04-10T07:54:48.609Z,11.50
2023-04-10T07:57:17.725Z,12.13
2023-04-10T07:59:46.557Z,12.03
2023-04-10T08:02:16.641Z,10.83
2023-04-10T08:04:45.523Z,10.98
2023-04-10T08:07:14.109Z,10.83
2023-04-10T08:09:42.788Z,10.97
2023-04-10T08:12:11.511Z,12.50
2023-04-10T08:14:40.162Z,14.93
2023-04-10T08:17:15.069Z,14.87
2023-04-10T08:19:45.227Z,43.28
2023-04-10T08:22:14.001Z,19.63
2023-04-10T08:24:42.651Z,23.93
2023-04-10T08:27:11.232Z,13.47
2023-04-10T08:29:39.767Z,12.67
2023-04-10T08:32:12.405Z,12.97
2023-04-10T08:34:40.976Z,11.13
2023-04-10T08:37:22.835Z,11.67
2023-04-10T08:39:51.370Z,12.00
2023-04-10T08:42:19.914Z,10.73
2023-04-10T08:44:51.049Z,10.07
2023-04-10T08:47:22.529Z,10.67
2023-04-10T08:49:56.652Z,9.53
2023-04-10T08:52:27.770Z,11.87
2023-04-10T08:54:59.124Z,11.33
2023-04-10T08:57:28.303Z,10.63
2023-04-10T08:59:57.071Z,11.47
2023-04-10T09:02:26.478Z,11.90
2023-04-10T09:04:56.344Z,10.03
2023-04-10T09:07:27.858Z,10.50
2023-04-10T09:09:58.077Z,11.90
2023-04-10T09:12:27.396Z,11.70
2023-04-10T09:14:58.494Z,10.63
2023-04-10T09:17:27.023Z,11.60
2023-04-10T09:19:57.338Z,13.60
2023-04-10T09:22:33.833Z,10.27
2023-04-10T09:25:04.165Z,10.07
2023-04-10T09:27:35.325Z,15.80
2023-04-10T09:30:04.895Z,10.30
2023-04-10T09:32:42.110Z,10.80
2023-04-10T09:35:12.010Z,10.97
2023-04-10T09:37:42.638Z,12.20
2023-04-10T09:40:23.104Z,11.43
2023-04-10T09:42:52.041Z,10.23
2023-04-10T09:45:22.794Z,12.77
2023-04-10T09:48:05.576Z,10.13
2023-04-10T09:50:40.161Z,11.30
2023-04-10T09:53:11.442Z,9.67
2023-04-10T09:55:41.029Z,9.83
2023-04-10T09:58:10.003Z,9.98
2023-04-10T10:00:42.279Z,8.13
2023-04-10T10:03:12.837Z,8.88
2023-04-10T10:05:43.518Z,13.60
2023-04-10T10:08:15.083Z,15.38
2023-04-10T10:10:48.499Z,17.42
2023-04-10T10:13:25.814Z,12.40
2023-04-10T10:16:06.062Z,11.85
2023-04-10T10:18:43.649Z,9.90
2023-04-10T10:21:12.817Z,7.70
2023-04-10T10:23:44.509Z,9.20
2023-04-10T10:26:14.308Z,10.13
2023-04-10T10:28:43.759Z,9.25
2023-04-10T10:31:12.642Z,10.45
2023-04-10T10:33:42.576Z,9.82
2023-04-10T10:36:14.308Z,8.70
2023-04-10T10:38:59.450Z,9.10
2023-04-10T10:41:34.066Z,10.73
2023-04-10T10:44:09.973Z,11.20
2023-04-10T10:46:45.728Z,15.90
2023-04-10T10:49:14.409Z,14.55
2023-04-10T10:51:48.365Z,13.75
2023-04-10T10:54:47.200Z,15.70
2023-04-10T10:57:49.463Z,15.77
2023-04-10T11:00:18.467Z,13.35
2023-04-10T11:02:47.365Z,14.52
2023-04-10T11:05:51.448Z,15.30
2023-04-10T11:08:36.594Z,14.63
2023-04-10T11:11:08.185Z,15.52
2023-04-10T11:13:38.011Z,17.73
2023-04-10T11:16:08.383Z,16.88
2023-04-10T11:19:14.112Z,12.88
2023-04-10T11:22:10.954Z,13.98
2023-04-10T11:25:02.842Z,13.35
2023-04-10T11:27:49.453Z,12.93
2023-04-10T11:30:28.669Z,12.65
2023-04-10T11:32:57.468Z,11.25
2023-04-10T11:35:27.307Z,21.88
2023-04-10T11:38:17.614Z,16.70
2023-04-10T11:41:05.093Z,16.45
2023-04-10T11:43:36.103Z,15.27
2023-04-10T11:46:07.783Z,12.95
2023-04-10T11:48:39.132Z,33.33
2023-04-10T11:51:12.203Z,59.75
2023-04-10T11:53:41.563Z,18.60
2023-04-10T11:56:17.975Z,18.85
2023-04-10T11:58:51.400Z,16.20
2023-04-10T12:01:23.785Z,31.30
2023-04-10T12:03:52.703Z,49.92
2023-04-10T12:06:22.209Z,18.38
2023-04-10T12:08:51.571Z,9.70
2023-04-10T12:11:21.875Z,12.70
2023-04-10T12:13:54.534Z,13.60
2023-04-10T12:16:23.789Z,12.05
2023-04-10T12:18:53.568Z,12.85
2023-04-10T12:21:22.961Z,35.55
2023-04-10T12:23:52.334Z,13.38
2023-04-10T12:26:22.719Z,10.73
2023-04-10T12:28:58.121Z,15.95
2023-04-10T12:31:32.653Z,15.60
2023-04-10T12:34:02.932Z,16.85
2023-04-10T12:36:35.398Z,25.65
2023-04-10T12:39:05.931Z,20.23
2023-04-10T12:41:38.617Z,14.57
2023-04-10T12:44:13.134Z,33.83
2023-04-10T12:46:43.411Z,38.15
2023-04-10T12:49:13.446Z,38.05
2023-04-10T12:51:46.732Z,27.42
2023-04-10T12:54:30.345Z,29.65
2023-04-10T12:56:59.224Z,36.58
2023-04-10T12:59:30.480Z,38.67
2023-04-10T13:01:59.331Z,33.83
2023-04-10T13:04:28.511Z,36.03
2023-04-10T13:06:57.335Z,40.63
2023-04-10T13:09:25.995Z,37.38
2023-04-10T13:11:54.642Z,36.13
2023-04-10T13:14:24.140Z,30.52
2023-04-10T13:16:54.453Z,26.40
2023-04-10T13:19:23.056Z,41.90
2023-04-10T13:21:52.245Z,27.38
2023-04-10T13:24:21.349Z,47.00
2023-04-10T13:26:49.901Z,37.42
2023-04-10T13:29:18.565Z,30.48
2023-04-10T13:31:47.151Z,12.13
2023-04-10T13:34:17.475Z,17.10
2023-04-10T13:36:46.168Z,22.40
2023-04-10T13:39:14.752Z,19.98
2023-04-10T13:41:43.330Z,22.35
2023-04-10T13:44:12.034Z,21.65
2023-04-10T13:46:41.018Z,20.55
2023-04-10T13:49:09.740Z,23.25
2023-04-10T13:51:41.785Z,17.20
2023-04-10T13:54:12.982Z,36.17
2023-04-10T13:56:42.100Z,17.58
2023-04-10T13:59:11.090Z,17.20
2023-04-10T14:01:40.075Z,15.95
2023-04-10T14:04:08.784Z,15.55
2023-04-10T14:06:51.600Z,15.57
2023-04-10T14:09:20.809Z,17.92
2023-04-10T14:11:50.165Z,18.17
2023-04-10T14:14:21.087Z,19.23
2023-04-10T14:16:49.760Z,19.58
2023-04-10T14:19:19.377Z,28.15
2023-04-10T14:21:49.469Z,28.63
2023-04-10T14:24:18.034Z,33.03
2023-04-10T14:26:46.776Z,28.85
2023-04-10T14:29:18.167Z,24.55
2023-04-10T14:31:57.524Z,14.20
2023-04-10T14:34:26.770Z,9.75
2023-04-10T14:36:57.008Z,10.75
2023-04-10T14:39:25.948Z,9.15
2023-04-10T14:41:54.582Z,9.85
2023-04-10T14:44:23.238Z,9.95
2023-04-10T14:46:54.314Z,9.75
2023-04-10T14:49:23.310Z,10.65
2023-04-10T14:51:52.131Z,10.02
2023-04-10T14:54:23.869Z,10.57
2023-04-10T14:56:52.624Z,12.07
2023-04-10T14:59:21.426Z,11.45
2023-04-10T15:01:50.237Z,13.27
2023-04-10T15:04:18.934Z,11.20
2023-04-10T15:06:47.505Z,13.20
2023-04-10T15:09:16.728Z,12.63
2023-04-10T15:11:47.488Z,14.20
2023-04-10T15:14:16.203Z,11.00
2023-04-10T15:16:44.809Z,10.82
2023-04-10T15:19:13.504Z,11.73
2023-04-10T15:21:42.071Z,11.25
2023-04-10T15:24:16.181Z,11.23
2023-04-10T15:26:47.162Z,11.25
2023-04-10T15:29:15.935Z,11.75
2023-04-10T15:31:44.654Z,14.98
2023-04-10T15:34:14.505Z,14.82
2023-04-10T15:36:43.092Z,19.98
2023-04-10T15:39:12.444Z,36.88
2023-04-10T15:41:45.494Z,15.70
2023-04-10T15:44:15.467Z,23.77
2023-04-10T15:46:44.618Z,102.65
2023-04-10T15:49:16.389Z,15.00
2023-04-10T15:51:49.351Z,10.88
2023-04-10T15:54:19.517Z,10.15
2023-04-10T15:56:50.760Z,9.18
2023-04-10T15:59:20.585Z,14.73
2023-04-10T16:01:49.362Z,13.82
2023-04-10T16:04:19.851Z,15.33
2023-04-10T16:06:48.791Z,15.03
2023-04-10T16:11:51.799Z,14.70
2023-04-10T16:14:21.211Z,10.30
2023-04-10T16:16:51.693Z,8.57
2023-04-10T16:19:21.231Z,8.45
2023-04-10T16:21:51.328Z,8.32
2023-04-10T16:24:20.172Z,8.40
2023-04-10T16:26:49.058Z,8.37
2023-04-10T16:29:20.075Z,8.73
2023-04-10T16:31:50.854Z,8.57
2023-04-10T16:34:20.369Z,9.13
2023-04-10T16:36:49.114Z,9.43
2023-04-10T16:39:17.811Z,9.20
2023-04-10T16:41:46.442Z,11.38
2023-04-10T16:44:15.242Z,12.03
2023-04-10T16:46:45.471Z,11.82
2023-04-10T16:49:14.164Z,18.37
2023-04-10T16:51:43.182Z,13.57
2023-04-10T16:54:12.060Z,12.70
2023-04-10T16:56:40.843Z,11.47
2023-04-10T16:59:09.719Z,11.20
2023-04-10T17:01:40.030Z,11.07
2023-04-10T17:04:10.701Z,11.43
2023-04-10T17:06:39.232Z,12.10
2023-04-10T17:09:07.971Z,11.00
2023-04-10T17:11:36.648Z,13.03
2023-04-10T17:14:09.945Z,12.23
2023-04-10T17:16:38.663Z,11.87
2023-04-10T17:19:07.480Z,11.90
2023-04-10T17:21:37.935Z,11.47
2023-04-10T17:24:06.848Z,13.32
2023-04-10T17:26:35.567Z,10.77
2023-04-10T17:29:04.135Z,11.93
2023-04-10T17:31:33.819Z,12.10
2023-04-10T17:34:05.064Z,10.13
2023-04-10T17:36:34.087Z,10.27
2023-04-10T17:39:05.766Z,11.73
2023-04-10T17:41:34.670Z,10.87
2023-04-10T17:44:03.576Z,11.67
2023-04-10T17:46:32.472Z,13.23
2023-04-10T17:49:01.717Z,12.27
2023-04-10T17:51:31.738Z,13.90
2023-04-10T17:54:00.995Z,14.17
2023-04-10T17:56:31.443Z,15.17
2023-04-10T17:59:00.775Z,14.70
2023-04-10T18:01:30.469Z,14.03
2023-04-10T18:04:00.094Z,14.97
2023-04-10T18:06:28.999Z,15.40
2023-04-10T18:08:58.146Z,15.83
2023-04-10T18:11:27.706Z,17.07
2023-04-10T18:13:57.707Z,29.47
2023-04-10T18:16:26.434Z,65.43
2023-04-10T18:18:55.207Z,67.40
2023-04-10T18:21:24.582Z,48.07
2023-04-10T18:23:53.264Z,36.27
2023-04-10T18:26:21.870Z,34.13
2023-04-10T18:28:50.470Z,44.30
2023-04-10T18:31:20.911Z,31.93
2023-04-10T18:34:00.215Z,19.93
2023-04-10T18:36:36.949Z,21.53
2023-04-10T18:39:06.303Z,21.67
2023-04-10T18:41:35.603Z,21.03
2023-04-10T18:44:05.825Z,22.20
2023-04-10T18:46:36.302Z,22.17
2023-04-10T18:49:04.860Z,22.20
2023-04-10T18:51:35.458Z,23.93
2023-04-10T18:54:04.196Z,35.83
2023-04-10T18:56:35.824Z,40.93
2023-04-10T18:59:06.001Z,30.43
2023-04-10T19:01:36.545Z,42.37
2023-04-10T19:04:05.355Z,34.63
2023-04-10T19:06:35.275Z,32.93
2023-04-10T19:09:03.788Z,37.33
2023-04-10T19:11:32.673Z,30.37
2023-04-10T19:14:01.242Z,20.40
2023-04-10T19:16:29.805Z,26.03
2023-04-10T19:19:01.499Z,22.53
2023-04-10T19:21:30.027Z,21.23
2023-04-10T19:23:58.821Z,25.40
2023-04-10T19:26:27.445Z,25.07
2023-04-10T19:28:56.380Z,26.60
2023-04-10T19:31:27.758Z,26.40
2023-04-10T19:33:56.443Z,29.47
2023-04-10T19:36:27.431Z,30.20
2023-04-10T19:38:57.668Z,31.07
2023-04-10T19:41:26.579Z,25.90
2023-04-10T19:43:56.522Z,23.27
2023-04-10T19:46:25.626Z,25.10
2023-04-10T19:48:54.896Z,22.77
2023-04-10T19:51:23.708Z,23.97
2023-04-10T19:53:56.178Z,24.63
2023-04-10T19:56:24.997Z,29.17
2023-04-10T19:58:53.539Z,31.97
2023-04-10T20:01:24.370Z,39.07
2023-04-10T20:03:53.341Z,46.93
2023-04-10T20:06:23.473Z,62.20
2023-04-10T20:08:53.687Z,57.20
2023-04-10T20:11:22.591Z,67.20
2023-04-10T20:13:51.331Z,43.63
2023-04-10T20:16:19.873Z,41.87
2023-04-10T20:18:48.515Z,44.23
2023-04-10T20:21:17.152Z,44.43
2023-04-10T20:23:46.124Z,45.37
2023-04-10T20:26:16.534Z,42.07
2023-04-10T20:28:45.506Z,38.57
2023-04-10T20:31:14.899Z,36.57
2023-04-10T20:33:43.599Z,35.77
2023-04-10T20:36:12.450Z,32.93
2023-04-10T20:38:41.729Z,29.27
2023-04-10T20:41:11.213Z,28.53
2023-04-10T20:43:42.158Z,30.67
2023-04-10T20:46:11.319Z,31.67
2023-04-10T20:48:44.271Z,31.10
2023-04-10T20:51:13.103Z,32.73
2023-04-10T20:53:42.197Z,31.70
2023-04-10T20:56:11.555Z,32.60
2023-04-10T20:58:41.950Z,31.33
2023-04-10T21:01:10.964Z,33.53
2023-04-10T21:03:40.031Z,32.60
2023-04-10T21:06:10.146Z,30.57
2023-04-10T21:08:38.910Z,29.80
2023-04-10T21:11:07.818Z,31.20
2023-04-10T21:13:38.385Z,31.23
2023-04-10T21:16:09.464Z,31.13
2023-04-10T21:18:38.050Z,31.50
2023-04-10T21:21:07.089Z,32.47
2023-04-10T21:23:35.628Z,30.33
2023-04-10T21:26:04.256Z,31.43
2023-04-10T21:28:33.192Z,32.77
2023-04-10T21:31:02.635Z,33.30
2023-04-10T21:33:32.740Z,35.17
2023-04-10T21:36:01.325Z,35.20
2023-04-10T21:38:30.043Z,36.57
2023-04-10T21:40:58.579Z,38.03
2023-04-10T21:43:27.291Z,37.63
2023-04-10T21:45:56.019Z,39.77
2023-04-10T21:48:24.980Z,43.27
2023-04-10T21:50:54.950Z,36.97
2023-04-10T21:53:24.021Z,38.20
2023-04-10T21:55:52.788Z,38.90
2023-04-10T21:58:22.970Z,31.92
2023-04-10T22:00:52.827Z,38.43
2023-04-10T22:03:22.885Z,55.60
2023-04-10T22:05:54.382Z,33.33
2023-04-10T22:08:27.124Z,65.95
2023-04-10T22:10:56.345Z,39.30
2023-04-10T22:13:30.889Z,40.30
2023-04-10T22:16:00.087Z,56.33
2023-04-10T22:18:28.697Z,39.73
2023-04-10T22:20:58.823Z,39.10
2023-04-10T22:23:27.422Z,40.17
2023-04-10T22:25:56.009Z,41.10
2023-04-10T22:28:24.767Z,39.67
2023-04-10T22:30:53.587Z,37.23
2023-04-10T22:33:22.360Z,38.17
2023-04-10T22:35:50.952Z,38.13
2023-04-10T22:38:21.070Z,49.57
2023-04-10T22:40:49.534Z,36.10
2023-04-10T22:43:18.225Z,34.13
2023-04-10T22:45:46.739Z,35.70
2023-04-10T22:48:15.349Z,37.30
2023-04-10T22:50:44.068Z,33.47
2023-04-10T22:53:12.785Z,32.87
2023-04-10T22:55:42.863Z,31.33
2023-04-10T22:58:12.102Z,31.33
2023-04-10T23:00:40.598Z,33.77
2023-04-10T23:03:09.269Z,34.63
2023-04-10T23:05:38.318Z,34.87
2023-04-10T23:08:06.951Z,34.13
2023-04-10T23:10:36.326Z,33.87
2023-04-10T23:13:06.288Z,34.17
2023-04-10T23:15:35.948Z,34.87
2023-04-10T23:18:04.806Z,33.17
2023-04-10T23:20:33.340Z,34.67
2023-04-10T23:23:02.586Z,33.87
2023-04-10T23:25:31.314Z,34.30
2023-04-10T23:28:00.274Z,36.28
2023-04-10T23:30:30.427Z,33.97
2023-04-10T23:32:59.461Z,33.17
2023-04-10T23:35:29.053Z,35.03
2023-04-10T23:37:57.887Z,32.03
2023-04-10T23:40:26.430Z,32.87
2023-04-10T23:42:54.972Z,34.17
2023-04-10T23:45:23.540Z,31.57
2023-04-10T23:47:53.481Z,32.07
2023-04-10T23:50:22.088Z,30.67
2023-04-10T23:52:51.307Z,31.40
2023-04-10T23:55:21.698Z,31.03
2023-04-10T23:57:50.258Z,31.67
